createdAt,value
2023-03-26T00:02:21.408Z,5.30
2023-03-26T00:04:50.274Z,5.00
2023-03-26T00:07:17.988Z,6.40
2023-03-26T00:09:45.690Z,5.10
2023-03-26T00:12:13.353Z,5.50
2023-03-26T00:14:41.138Z,6.40
2023-03-26T00:17:08.981Z,6.00
2023-03-26T00:19:37.261Z,6.20
2023-03-26T00:22:06.161Z,5.40
2023-03-26T00:24:34.018Z,5.70
2023-03-26T00:27:02.085Z,6.50
2023-03-26T00:29:33.436Z,4.50
2023-03-26T00:32:01.920Z,4.00
2023-03-26T00:34:29.990Z,5.50
2023-03-26T00:37:02.702Z,3.90
2023-03-26T00:39:33.876Z,4.40
2023-03-26T00:42:07.006Z,5.30
2023-03-26T00:44:34.793Z,3.90
2023-03-26T00:47:03.762Z,3.10
2023-03-26T00:49:32.254Z,4.10
2023-03-26T00:52:00.214Z,4.00
2023-03-26T00:54:28.697Z,3.80
2023-03-26T00:56:56.545Z,2.40
2023-03-26T00:59:24.392Z,2.80
2023-03-26T01:01:55.376Z,2.50
2023-03-26T01:04:27.941Z,2.90
2023-03-26T01:06:56.432Z,2.00
2023-03-26T01:09:24.494Z,2.00
2023-03-26T01:11:52.158Z,1.70
2023-03-26T01:14:19.826Z,2.00
2023-03-26T01:16:50.137Z,1.50
2023-03-26T01:19:18.010Z,2.10
2023-03-26T01:21:47.515Z,1.80
2023-03-26T01:24:15.176Z,2.20
2023-03-26T01:26:42.837Z,2.40
2023-03-26T01:29:10.467Z,2.30
2023-03-26T01:31:38.979Z,2.00
2023-03-26T01:34:06.624Z,2.20
2023-03-26T01:36:34.303Z,2.10
2023-03-26T01:39:01.965Z,1.80
2023-03-26T01:41:29.833Z,2.30
2023-03-26T01:43:58.587Z,2.20
2023-03-26T01:46:26.324Z,1.80
2023-03-26T01:48:54.249Z,2.10
2023-03-26T01:51:21.917Z,2.30
2023-03-26T01:53:49.570Z,2.40
2023-03-26T01:56:17.232Z,2.40
2023-03-26T01:58:44.894Z,2.20
2023-03-26T02:01:12.904Z,2.60
2023-03-26T02:03:40.659Z,2.60
2023-03-26T02:06:08.599Z,2.60
2023-03-26T02:08:36.261Z,2.10
2023-03-26T02:11:04.612Z,2.70
2023-03-26T02:13:32.400Z,2.30
2023-03-26T02:16:00.201Z,2.40
2023-03-26T02:18:36.502Z,2.20
2023-03-26T02:21:04.396Z,1.80
2023-03-26T02:23:36.009Z,1.60
2023-03-26T02:26:03.818Z,1.90
2023-03-26T02:28:31.790Z,1.70
2023-03-26T02:31:02.108Z,1.80
2023-03-26T02:33:29.770Z,1.50
2023-03-26T02:36:02.226Z,1.70
2023-03-26T02:38:30.110Z,1.60
2023-03-26T02:40:57.770Z,1.80
2023-03-26T02:43:25.739Z,1.70
2023-03-26T02:45:53.605Z,1.70
2023-03-26T02:48:22.075Z,1.90
2023-03-26T02:50:50.466Z,1.70
2023-03-26T02:53:18.129Z,1.80
2023-03-26T02:55:45.903Z,1.60
2023-03-26T02:58:17.747Z,2.10
2023-03-26T03:00:47.464Z,2.00
2023-03-26T03:03:17.375Z,2.00
2023-03-26T03:05:45.139Z,1.90
2023-03-26T03:08:13.518Z,1.70
2023-03-26T03:10:41.384Z,2.00
2023-03-26T03:13:09.149Z,1.80
2023-03-26T03:15:36.914Z,1.80
2023-03-26T03:18:04.582Z,1.70
2023-03-26T03:20:35.434Z,1.50
2023-03-26T03:23:03.287Z,1.50
2023-03-26T03:25:31.145Z,1.40
2023-03-26T03:27:59.119Z,1.60
2023-03-26T03:30:26.881Z,1.60
2023-03-26T03:32:54.554Z,1.50
2023-03-26T03:35:22.328Z,1.50
2023-03-26T03:37:50.072Z,1.60
2023-03-26T03:40:17.742Z,1.50
2023-03-26T03:42:45.599Z,1.80
2023-03-26T03:45:13.262Z,1.50
2023-03-26T03:47:41.063Z,1.40
2023-03-26T03:50:08.894Z,1.50
2023-03-26T03:52:36.658Z,1.30
2023-03-26T03:55:04.419Z,1.00
2023-03-26T03:57:33.721Z,1.00
2023-03-26T04:00:01.693Z,1.50
2023-03-26T04:02:35.221Z,1.40
2023-03-26T04:05:03.161Z,1.00
2023-03-26T04:07:31.440Z,1.30
2023-03-26T04:10:00.297Z,1.20
2023-03-26T04:12:28.436Z,1.40
2023-03-26T04:14:56.262Z,1.00
2023-03-26T04:17:24.078Z,1.20
2023-03-26T04:19:53.145Z,1.80
2023-03-26T04:22:21.803Z,1.30
2023-03-26T04:24:50.389Z,1.20
2023-03-26T04:27:18.016Z,1.10
2023-03-26T04:29:45.719Z,1.20
2023-03-26T04:32:14.498Z,1.60
2023-03-26T04:34:46.176Z,1.00
2023-03-26T04:37:14.433Z,1.30
2023-03-26T04:39:42.096Z,1.20
2023-03-26T04:42:09.762Z,1.10
2023-03-26T04:44:37.519Z,0.90
2023-03-26T04:47:05.193Z,1.30
2023-03-26T04:49:32.946Z,0.90
2023-03-26T04:52:00.559Z,0.90
2023-03-26T04:54:28.275Z,0.90
2023-03-26T04:56:56.956Z,1.10
2023-03-26T04:59:26.588Z,1.10
2023-03-26T05:01:54.426Z,0.90
2023-03-26T05:04:22.173Z,1.10
2023-03-26T05:06:50.060Z,1.20
2023-03-26T05:09:17.717Z,1.40
2023-03-26T05:11:45.585Z,1.00
2023-03-26T05:14:13.249Z,1.20
2023-03-26T05:16:41.608Z,1.20
2023-03-26T05:19:09.391Z,1.30
2023-03-26T05:21:37.150Z,1.20
2023-03-26T05:24:06.449Z,1.40
2023-03-26T05:26:34.112Z,1.50
2023-03-26T05:29:03.215Z,1.30
2023-03-26T05:31:33.942Z,1.20
2023-03-26T05:34:01.894Z,1.30
2023-03-26T05:36:29.680Z,1.20
2023-03-26T05:38:57.440Z,1.80
2023-03-26T05:41:25.102Z,1.70
2023-03-26T05:43:52.829Z,1.40
2023-03-26T05:46:22.119Z,1.30
2023-03-26T05:48:50.042Z,1.30
2023-03-26T05:51:17.698Z,1.20
2023-03-26T05:53:45.461Z,0.90
2023-03-26T05:56:13.229Z,1.50
2023-03-26T05:58:42.217Z,1.30
2023-03-26T06:01:10.086Z,1.60
2023-03-26T06:03:37.863Z,1.30
2023-03-26T06:06:05.914Z,1.50
2023-03-26T06:08:33.789Z,1.20
2023-03-26T06:11:01.864Z,1.60
2023-03-26T06:13:29.516Z,1.30
2023-03-26T06:15:58.608Z,1.10
2023-03-26T06:18:26.729Z,1.30
2023-03-26T06:20:54.840Z,1.50
2023-03-26T06:23:23.575Z,1.60
2023-03-26T06:25:51.408Z,1.20
2023-03-26T06:28:19.250Z,1.30
2023-03-26T06:30:47.043Z,1.80
2023-03-26T06:33:14.708Z,2.10
2023-03-26T06:35:43.425Z,1.60
2023-03-26T06:38:11.154Z,1.70
2023-03-26T06:40:38.936Z,1.80
2023-03-26T06:43:10.669Z,1.30
2023-03-26T06:45:38.859Z,1.30
2023-03-26T06:48:06.730Z,1.20
2023-03-26T06:50:34.713Z,1.70
2023-03-26T06:53:02.551Z,1.40
2023-03-26T06:55:31.646Z,1.60
2023-03-26T06:57:59.515Z,1.70
2023-03-26T07:00:27.276Z,1.80
2023-03-26T07:02:55.109Z,1.70
2023-03-26T07:05:23.008Z,1.60
2023-03-26T07:07:50.985Z,2.60
2023-03-26T07:10:18.643Z,1.50
2023-03-26T07:12:46.716Z,1.60
2023-03-26T07:15:14.479Z,1.60
2023-03-26T07:17:42.395Z,1.70
2023-03-26T07:20:10.698Z,1.30
2023-03-26T07:22:38.590Z,1.50
2023-03-26T07:25:06.849Z,1.10
2023-03-26T07:27:34.634Z,1.30
2023-03-26T07:30:03.235Z,1.30
2023-03-26T07:32:31.202Z,1.50
2023-03-26T07:34:58.959Z,1.00
2023-03-26T07:37:27.013Z,1.30
2023-03-26T07:39:54.889Z,2.40
2023-03-26T07:42:22.636Z,1.70
2023-03-26T07:44:50.616Z,1.30
2023-03-26T07:47:18.788Z,1.50
2023-03-26T07:49:46.758Z,1.20
2023-03-26T07:52:14.625Z,1.30
2023-03-26T07:54:42.844Z,1.10
2023-03-26T07:57:10.957Z,1.40
2023-03-26T07:59:38.843Z,1.40
2023-03-26T08:02:06.806Z,1.30
2023-03-26T08:04:34.780Z,1.60
2023-03-26T08:07:02.792Z,1.50
2023-03-26T08:09:30.722Z,1.40
2023-03-26T08:11:58.988Z,1.20
2023-03-26T08:14:26.751Z,1.30
2023-03-26T08:16:54.515Z,1.40
2023-03-26T08:19:22.792Z,1.60
2023-03-26T08:21:50.664Z,1.70
2023-03-26T08:24:21.396Z,1.50
2023-03-26T08:26:49.264Z,1.60
2023-03-26T08:29:17.125Z,1.60
2023-03-26T08:31:45.503Z,1.80
2023-03-26T08:34:13.576Z,1.30
2023-03-26T08:36:41.544Z,1.90
2023-03-26T08:39:09.411Z,1.30
2023-03-26T08:41:37.183Z,1.50
2023-03-26T08:44:05.161Z,1.60
2023-03-26T08:46:33.165Z,1.50
2023-03-26T08:49:01.797Z,1.70
2023-03-26T08:51:29.663Z,1.50
2023-03-26T08:53:57.438Z,1.80
2023-03-26T08:56:26.227Z,1.70
2023-03-26T08:58:54.086Z,1.60
2023-03-26T09:01:22.061Z,1.50
2023-03-26T09:03:50.942Z,1.60
2023-03-26T09:06:18.706Z,1.50
2023-03-26T09:08:53.884Z,1.90
2023-03-26T09:11:22.681Z,1.50
2023-03-26T09:13:50.504Z,1.60
2023-03-26T09:16:18.294Z,1.60
2023-03-26T09:18:46.845Z,1.30
2023-03-26T09:21:14.769Z,1.50
2023-03-26T09:23:42.842Z,1.40
2023-03-26T09:26:10.867Z,1.60
2023-03-26T09:28:38.980Z,1.80
2023-03-26T09:31:07.129Z,1.20
2023-03-26T09:33:37.220Z,1.40
2023-03-26T09:36:05.110Z,1.20
2023-03-26T09:38:32.956Z,1.50
2023-03-26T09:41:01.541Z,1.60
2023-03-26T09:43:29.313Z,1.70
2023-03-26T09:45:57.204Z,1.30
2023-03-26T09:48:25.242Z,1.40
2023-03-26T09:50:55.225Z,1.80
2023-03-26T09:53:23.337Z,1.70
2023-03-26T09:55:51.296Z,1.70
2023-03-26T09:58:19.181Z,1.50
2023-03-26T10:00:47.164Z,1.70
2023-03-26T10:03:16.256Z,1.70
2023-03-26T10:05:44.314Z,1.70
2023-03-26T10:08:12.781Z,1.40
2023-03-26T10:10:40.755Z,1.30
2023-03-26T10:13:14.436Z,1.20
2023-03-26T10:15:42.935Z,1.40
2023-03-26T10:18:27.586Z,1.30
2023-03-26T10:20:57.920Z,1.40
2023-03-26T10:23:26.401Z,1.40
2023-03-26T10:25:54.263Z,1.30
2023-03-26T10:28:22.028Z,1.60
2023-03-26T10:30:49.904Z,1.40
2023-03-26T10:33:17.760Z,1.50
2023-03-26T10:35:45.618Z,1.40
2023-03-26T10:38:13.706Z,1.50
2023-03-26T10:40:43.330Z,1.40
2023-03-26T10:43:12.589Z,1.10
2023-03-26T10:45:40.983Z,1.10
2023-03-26T10:48:08.877Z,1.30
2023-03-26T10:50:36.823Z,1.20
2023-03-26T10:53:04.791Z,1.10
2023-03-26T10:55:33.171Z,1.50
2023-03-26T10:58:01.353Z,1.30
2023-03-26T11:00:30.232Z,1.30
2023-03-26T11:02:58.024Z,1.00
2023-03-26T11:05:25.881Z,3.00
2023-03-26T11:07:54.344Z,2.00
2023-03-26T11:10:22.006Z,1.40
2023-03-26T11:12:59.091Z,1.70
2023-03-26T11:15:27.432Z,1.20
2023-03-26T11:17:56.455Z,1.30
2023-03-26T11:20:26.605Z,1.20
2023-03-26T11:22:54.553Z,1.30
2023-03-26T11:25:22.427Z,1.10
2023-03-26T11:27:50.182Z,1.20
2023-03-26T11:30:17.952Z,1.20
2023-03-26T11:32:45.740Z,1.70
2023-03-26T11:35:13.785Z,3.30
2023-03-26T11:37:41.853Z,2.10
2023-03-26T11:40:09.727Z,1.60
2023-03-26T11:42:37.691Z,1.20
2023-03-26T11:45:05.558Z,1.10
2023-03-26T11:47:33.301Z,1.10
2023-03-26T11:50:01.503Z,1.10
2023-03-26T11:52:29.801Z,1.50
2023-03-26T11:54:59.684Z,1.10
2023-03-26T11:57:28.828Z,1.10
2023-03-26T11:59:57.950Z,1.00
2023-03-26T12:02:26.481Z,1.30
2023-03-26T12:04:55.751Z,1.00
2023-03-26T12:07:23.832Z,1.20
2023-03-26T12:09:52.209Z,1.20
2023-03-26T12:12:20.173Z,2.40
2023-03-26T12:14:47.933Z,1.90
2023-03-26T12:17:15.802Z,2.90
2023-03-26T12:19:44.080Z,1.40
2023-03-26T12:22:13.374Z,1.50
2023-03-26T12:24:47.795Z,1.40
2023-03-26T12:27:20.472Z,1.20
2023-03-26T12:29:48.976Z,1.50
2023-03-26T12:32:17.095Z,1.40
2023-03-26T12:34:45.170Z,1.20
2023-03-26T12:37:12.867Z,1.10
2023-03-26T12:40:10.666Z,1.20
2023-03-26T12:44:49.730Z,2.70
2023-03-26T12:45:19.493Z,1.80
2023-03-26T12:48:01.762Z,1.50
2023-03-26T12:50:34.455Z,1.80
2023-03-26T12:53:03.969Z,1.30
2023-03-26T12:55:31.826Z,2.20
2023-03-26T12:58:00.206Z,1.70
2023-03-26T13:00:47.930Z,1.50
2023-03-26T13:03:15.944Z,1.70
2023-03-26T13:05:44.600Z,1.90
2023-03-26T13:08:12.876Z,1.00
2023-03-26T13:10:41.570Z,1.20
2023-03-26T13:13:10.300Z,1.00
2023-03-26T13:15:39.245Z,1.80
2023-03-26T13:18:07.945Z,1.20
2023-03-26T13:20:37.872Z,1.10
2023-03-26T13:23:06.115Z,1.30
2023-03-26T13:25:34.082Z,1.40
2023-03-26T13:28:02.154Z,1.50
2023-03-26T13:30:31.436Z,1.50
2023-03-26T13:33:00.093Z,1.50
2023-03-26T13:35:28.294Z,2.00
2023-03-26T13:37:56.590Z,1.30
2023-03-26T13:40:26.095Z,1.60
2023-03-26T13:42:55.081Z,1.40
2023-03-26T13:45:23.996Z,1.60
2023-03-26T13:47:52.042Z,1.20
2023-03-26T13:50:22.495Z,1.70
2023-03-26T13:52:55.771Z,2.60
2023-03-26T13:55:23.637Z,1.90
2023-03-26T13:57:55.547Z,1.90
2023-03-26T14:00:24.087Z,1.70
2023-03-26T14:02:52.645Z,2.10
2023-03-26T14:05:20.692Z,2.40
2023-03-26T14:07:48.920Z,1.90
2023-03-26T14:10:16.982Z,1.90
2023-03-26T14:12:49.587Z,1.70
2023-03-26T14:15:17.909Z,1.60
2023-03-26T14:17:47.815Z,1.50
2023-03-26T14:20:15.716Z,1.70
2023-03-26T14:22:43.488Z,2.10
2023-03-26T14:25:17.277Z,2.10
2023-03-26T14:27:45.086Z,1.70
2023-03-26T14:30:12.917Z,2.00
2023-03-26T14:32:41.107Z,1.80
2023-03-26T14:35:09.980Z,2.60
2023-03-26T14:37:38.613Z,2.20
2023-03-26T14:40:13.085Z,2.20
2023-03-26T14:42:40.951Z,4.40
2023-03-26T14:45:08.613Z,4.50
2023-03-26T14:47:36.760Z,2.90
2023-03-26T14:50:04.735Z,2.80
2023-03-26T14:52:32.521Z,3.10
2023-03-26T14:55:00.497Z,2.40
2023-03-26T14:57:28.373Z,2.80
2023-03-26T14:59:56.122Z,2.20
2023-03-26T15:02:24.358Z,2.60
2023-03-26T15:04:52.368Z,1.90
2023-03-26T15:07:20.135Z,5.10
2023-03-26T15:09:49.434Z,6.80
2023-03-26T15:12:17.201Z,39.60
2023-03-26T15:14:46.187Z,9.20
2023-03-26T15:17:13.954Z,5.80
2023-03-26T15:19:41.717Z,2.80
2023-03-26T15:22:10.914Z,2.20
2023-03-26T15:24:38.582Z,1.80
2023-03-26T15:27:06.544Z,1.60
2023-03-26T15:29:35.845Z,1.60
2023-03-26T15:32:03.769Z,1.70
2023-03-26T15:34:32.089Z,1.70
2023-03-26T15:37:00.568Z,1.50
2023-03-26T15:39:28.333Z,1.60
2023-03-26T15:41:56.302Z,1.60
2023-03-26T15:44:25.515Z,1.80
2023-03-26T15:46:53.675Z,2.00
2023-03-26T15:49:21.437Z,2.00
2023-03-26T15:51:49.512Z,3.30
2023-03-26T15:54:21.629Z,4.90
2023-03-26T15:56:55.946Z,9.90
2023-03-26T15:59:29.465Z,10.70
2023-03-26T16:02:04.320Z,9.70
2023-03-26T16:04:32.733Z,7.00
2023-03-26T16:07:03.854Z,6.70
2023-03-26T16:09:32.641Z,13.80
2023-03-26T16:12:00.598Z,22.10
2023-03-26T16:14:28.465Z,27.90
2023-03-26T16:16:56.228Z,17.30
2023-03-26T16:19:24.505Z,20.60
2023-03-26T16:21:52.680Z,31.80
2023-03-26T16:24:20.750Z,16.40
2023-03-26T16:26:48.619Z,9.70
2023-03-26T16:29:16.380Z,9.80
2023-03-26T16:31:44.672Z,9.80
2023-03-26T16:34:12.423Z,8.10
2023-03-26T16:36:40.821Z,7.50
2023-03-26T16:39:08.985Z,8.80
2023-03-26T16:41:37.560Z,9.60
2023-03-26T16:44:05.532Z,10.00
2023-03-26T16:46:33.637Z,9.90
2023-03-26T16:49:01.482Z,10.50
2023-03-26T16:51:29.542Z,13.50
2023-03-26T16:53:57.946Z,12.70
2023-03-26T16:56:28.132Z,9.40
2023-03-26T16:58:56.419Z,8.70
2023-03-26T17:01:27.613Z,9.60
2023-03-26T17:03:55.616Z,22.30
2023-03-26T17:06:23.601Z,29.70
2023-03-26T17:08:53.579Z,25.90
2023-03-26T17:11:21.825Z,34.10
2023-03-26T17:13:50.061Z,32.80
2023-03-26T17:16:18.077Z,27.10
2023-03-26T17:18:46.340Z,28.50
2023-03-26T17:21:14.380Z,28.80
2023-03-26T17:23:42.449Z,27.60
2023-03-26T17:26:10.110Z,26.60
2023-03-26T17:28:37.879Z,29.50
2023-03-26T17:31:05.881Z,33.60
2023-03-26T17:33:35.024Z,32.10
2023-03-26T17:36:02.863Z,29.20
2023-03-26T17:38:32.275Z,26.80
2023-03-26T17:41:00.062Z,27.40
2023-03-26T17:43:28.661Z,26.80
2023-03-26T17:46:02.913Z,26.20
2023-03-26T17:48:35.120Z,24.00
2023-03-26T17:51:02.809Z,25.00
2023-03-26T17:53:33.344Z,23.60
2023-03-26T17:56:03.560Z,24.50
2023-03-26T17:58:32.035Z,21.70
2023-03-26T18:00:59.724Z,24.00
2023-03-26T18:03:29.589Z,21.60
2023-03-26T18:05:58.518Z,21.80
2023-03-26T18:08:26.375Z,21.90
2023-03-26T18:10:54.296Z,24.90
2023-03-26T18:13:22.217Z,27.50
2023-03-26T18:15:49.971Z,26.90
2023-03-26T18:18:18.657Z,26.00
2023-03-26T18:20:47.262Z,19.20
2023-03-26T18:23:15.011Z,16.30
2023-03-26T18:25:42.871Z,18.70
2023-03-26T18:28:10.739Z,21.70
2023-03-26T18:30:38.706Z,26.70
2023-03-26T18:33:06.664Z,33.20
2023-03-26T18:35:34.552Z,31.50
2023-03-26T18:38:03.748Z,34.30
2023-03-26T18:40:31.505Z,34.30
2023-03-26T18:42:59.263Z,37.30
2023-03-26T18:45:27.439Z,39.40
2023-03-26T18:47:56.032Z,24.10
2023-03-26T18:50:23.807Z,15.60
2023-03-26T18:52:51.550Z,15.30
2023-03-26T18:55:19.418Z,11.80
2023-03-26T18:57:47.181Z,11.60
2023-03-26T19:00:17.097Z,9.30
2023-03-26T19:02:44.940Z,8.60
2023-03-26T19:05:12.940Z,9.30
2023-03-26T19:07:41.134Z,8.60
2023-03-26T19:10:08.971Z,7.90
2023-03-26T19:12:37.766Z,11.80
2023-03-26T19:15:08.100Z,18.80
2023-03-26T19:17:38.430Z,20.20
2023-03-26T19:20:09.974Z,20.60
2023-03-26T19:22:38.241Z,21.70
2023-03-26T19:25:06.001Z,28.00
2023-03-26T19:27:33.761Z,30.10
2023-03-26T19:30:01.526Z,27.90
2023-03-26T19:32:29.748Z,24.00
2023-03-26T19:34:57.469Z,19.50
2023-03-26T19:37:25.340Z,18.70
2023-03-26T19:39:53.106Z,17.10
2023-03-26T19:42:21.391Z,13.60
2023-03-26T19:44:49.455Z,11.10
2023-03-26T19:47:17.317Z,12.10
2023-03-26T19:49:45.182Z,15.70
2023-03-26T19:52:12.950Z,14.20
2023-03-26T19:54:40.711Z,14.10
2023-03-26T19:57:28.237Z,16.60
2023-03-26T19:59:56.207Z,15.30
2023-03-26T20:02:23.998Z,14.10
2023-03-26T20:04:51.838Z,12.80
2023-03-26T20:07:20.273Z,13.00
2023-03-26T20:09:48.824Z,8.30
2023-03-26T20:12:20.763Z,8.50
2023-03-26T20:14:49.041Z,9.30
2023-03-26T20:17:16.906Z,10.40
2023-03-26T20:19:44.671Z,9.90
2023-03-26T20:22:12.433Z,9.20
2023-03-26T20:24:40.609Z,10.60
2023-03-26T20:27:08.372Z,8.90
2023-03-26T20:29:36.953Z,8.50
2023-03-26T20:32:09.649Z,10.60
2023-03-26T20:34:38.621Z,8.20
2023-03-26T20:37:07.206Z,7.40
2023-03-26T20:39:34.973Z,7.30
2023-03-26T20:42:02.733Z,7.30
2023-03-26T20:44:31.016Z,5.80
2023-03-26T20:46:59.296Z,5.90
2023-03-26T20:49:29.605Z,6.80
2023-03-26T20:51:57.882Z,7.40
2023-03-26T20:54:25.549Z,7.20
2023-03-26T20:56:53.720Z,9.00
2023-03-26T20:59:22.406Z,7.10
2023-03-26T21:01:50.538Z,6.50
2023-03-26T21:04:19.388Z,6.80
2023-03-26T21:06:47.029Z,6.90
2023-03-26T21:09:18.073Z,6.40
2023-03-26T21:11:46.054Z,6.70
2023-03-26T21:14:13.903Z,7.40
2023-03-26T21:16:41.586Z,8.60
2023-03-26T21:19:10.353Z,8.20
2023-03-26T21:21:38.013Z,9.20
2023-03-26T21:24:06.199Z,9.90
2023-03-26T21:26:33.849Z,12.00
2023-03-26T21:29:09.404Z,11.70
2023-03-26T21:31:38.227Z,11.90
2023-03-26T21:34:06.069Z,11.60
2023-03-26T21:36:33.865Z,10.60
2023-03-26T21:39:01.585Z,12.80
2023-03-26T21:41:29.245Z,13.90
2023-03-26T21:43:57.009Z,11.30
2023-03-26T21:46:24.803Z,11.90
2023-03-26T21:48:52.558Z,10.20
2023-03-26T21:51:20.306Z,10.40
2023-03-26T21:53:49.090Z,10.70
2023-03-26T21:56:16.749Z,10.80
2023-03-26T21:58:44.514Z,11.00
2023-03-26T22:01:12.408Z,11.90
2023-03-26T22:03:40.259Z,20.70
2023-03-26T22:06:08.119Z,20.50
2023-03-26T22:08:35.877Z,17.80
2023-03-26T22:11:03.513Z,14.70
2023-03-26T22:13:31.305Z,13.00
2023-03-26T22:15:59.013Z,11.00
2023-03-26T22:18:30.356Z,11.20
2023-03-26T22:20:59.405Z,11.90
2023-03-26T22:23:27.280Z,10.40
2023-03-26T22:25:55.047Z,11.50
2023-03-26T22:28:22.704Z,10.90
2023-03-26T22:30:50.707Z,10.30
2023-03-26T22:33:18.437Z,10.70
2023-03-26T22:35:46.327Z,11.00
2023-03-26T22:38:14.068Z,11.10
2023-03-26T22:40:41.731Z,11.70
2023-03-26T22:43:09.605Z,11.40
2023-03-26T22:45:37.875Z,13.00
2023-03-26T22:48:05.746Z,13.90
2023-03-26T22:50:33.538Z,15.00
2023-03-26T22:53:01.367Z,17.50
2023-03-26T22:55:29.788Z,18.00
2023-03-26T22:57:57.933Z,20.70
2023-03-26T23:00:26.746Z,16.00
2023-03-26T23:02:56.082Z,15.70
2023-03-26T23:05:23.977Z,14.50
2023-03-26T23:07:52.467Z,21.90
2023-03-26T23:10:21.861Z,19.10
2023-03-26T23:12:49.846Z,14.20
2023-03-26T23:15:17.592Z,13.90
2023-03-26T23:17:45.454Z,13.30
2023-03-26T23:20:22.753Z,14.00
2023-03-26T23:22:50.831Z,14.10
2023-03-26T23:25:18.588Z,13.50
2023-03-26T23:27:46.244Z,14.70
2023-03-26T23:30:15.347Z,13.40
2023-03-26T23:32:43.586Z,12.90
2023-03-26T23:35:11.483Z,12.20
2023-03-26T23:37:42.681Z,13.40
2023-03-26T23:40:10.907Z,13.30
2023-03-26T23:42:38.671Z,12.90
2023-03-26T23:45:06.333Z,11.30
2023-03-26T23:47:37.598Z,12.10
2023-03-26T23:50:05.356Z,10.50
2023-03-26T23:52:33.107Z,11.10
2023-03-26T23:55:01.380Z,13.50
2023-03-26T23:57:29.346Z,12.60
2023-03-26T23:59:57.010Z,12.40
